Time;durP1;ratioP1;P1;durP2;ratioP2;P2;SDS_P1;SDS_P2;PMS_P1;PMS_P2;Temp;Humidity;BMP_temperature;BMP_pressure;BME280_temperature;BME280_humidity;BME280_pressure;Samples;Min_cycle;Max_cycle;Signal;HPM_P1;HPM_P2
2021/01/02 00:01:37;;;;;;;72.97;36.20;;;4.50;98.30;;;;;;5108022;23;20851;-82
2021/01/02 00:04:09;;;;;;;72.15;37.38;;;4.50;98.30;;;;;;5099919;23;20450;-82
2021/01/02 00:06:23;;;;;;;59.42;31.40;;;4.50;98.30;;;;;;5092734;23;20205;-80
2021/01/02 00:08:28;;;;;;;71.78;35.85;;;4.50;98.30;;;;;;5092418;23;20236;-82
2021/01/02 00:10:48;;;;;;;58.50;32.57;;;4.40;98.30;;;;;;5091323;23;20208;-83
2021/01/02 00:13:13;;;;;;;73.53;40.17;;;4.40;98.30;;;;;;5099082;23;20450;-84
2021/01/02 00:15:21;;;;;;;60.47;32.50;;;4.30;98.30;;;;;;5098078;23;20265;-83
2021/01/02 00:17:51;;;;;;;70.53;37.05;;;4.30;98.30;;;;;;5092175;23;20709;-81
2021/01/02 00:20:16;;;;;;;65.32;35.00;;;4.30;98.30;;;;;;5101426;23;20213;-84
2021/01/02 00:22:33;;;;;;;73.67;39.50;;;4.30;98.30;;;;;;5100937;23;20204;-84
2021/01/02 00:24:40;;;;;;;72.05;36.08;;;4.30;98.30;;;;;;5102987;23;20493;-84
2021/01/02 00:26:44;;;;;;;73.57;32.70;;;4.20;98.30;;;;;;5094289;23;20203;-83
2021/01/02 00:28:49;;;;;;;73.45;37.75;;;4.30;98.30;;;;;;5101876;23;20235;-83
2021/01/02 00:31:24;;;;;;;71.07;34.95;;;4.30;98.30;;;;;;5101598;23;20227;-84
2021/01/02 00:33:40;;;;;;;74.30;40.95;;;4.20;98.30;;;;;;5095072;23;20212;-83
2021/01/02 00:35:43;;;;;;;74.80;38.88;;;4.20;98.30;;;;;;5103861;23;20203;-83
2021/01/02 00:37:50;;;;;;;69.80;32.78;;;4.20;98.30;;;;;;5103541;23;20210;-84
2021/01/02 00:40:04;;;;;;;70.78;33.45;;;4.20;98.30;;;;;;5103586;23;20199;-82
2021/01/02 00:42:08;;;;;;;64.60;36.67;;;4.20;98.30;;;;;;5095061;23;20207;-81
2021/01/02 00:44:14;;;;;;;68.28;39.75;;;4.20;98.30;;;;;;5095322;23;20207;-83
2021/01/02 00:46:16;;;;;;;66.18;35.45;;;4.20;98.30;;;;;;5093237;23;20230;-83
2021/01/02 00:48:18;;;;;;;72.95;39.45;;;4.30;98.30;;;;;;5100847;23;20331;-84
2021/01/02 00:50:22;;;;;;;69.65;33.10;;;4.30;98.30;;;;;;5101106;23;20206;-84
2021/01/02 00:53:03;;;;;;;66.60;33.63;;;4.20;98.30;;;;;;5091734;23;20294;-83
2021/01/02 00:55:14;;;;;;;65.15;32.38;;;4.20;98.30;;;;;;5092472;23;20533;-82
2021/01/02 00:57:34;;;;;;;64.18;32.83;;;4.20;98.30;;;;;;5092486;23;20262;-83
2021/01/02 01:00:06;;;;;;;68.23;36.80;;;4.20;98.30;;;;;;5093002;23;20666;-82
2021/01/02 01:02:39;;;;;;;61.55;39.13;;;4.20;98.30;;;;;;5078957;23;20984;-82
2021/01/02 01:05:02;;;;;;;66.50;36.10;;;4.20;98.30;;;;;;5093475;23;20220;-81
2021/01/02 01:07:08;;;;;;;58.67;30.92;;;4.20;98.30;;;;;;5092303;23;21288;-81
2021/01/02 01:09:13;;;;;;;60.65;29.75;;;4.20;98.30;;;;;;5092502;23;20203;-80
2021/01/02 01:11:17;;;;;;;57.63;29.42;;;4.20;98.30;;;;;;5092205;23;20207;-83
2021/01/02 01:13:20;;;;;;;64.70;36.15;;;4.10;98.30;;;;;;5100356;23;20207;-82
2021/01/02 01:15:23;;;;;;;63.72;35.85;;;4.20;98.30;;;;;;5092019;23;20286;-83
2021/01/02 01:17:32;;;;;;;66.60;33.53;;;4.10;98.30;;;;;;5100101;23;20279;-83
2021/01/02 01:19:36;;;;;;;61.30;31.83;;;4.10;98.30;;;;;;5092868;23;20238;-81
2021/01/02 01:21:45;;;;;;;57.78;32.88;;;4.10;98.30;;;;;;5091737;23;20211;-83
2021/01/02 01:24:03;;;;;;;55.13;29.40;;;4.10;98.30;;;;;;5100264;23;20261;-82
2021/01/02 01:26:26;;;;;;;59.45;35.45;;;4.10;98.30;;;;;;5092117;23;20379;-82
2021/01/02 01:28:32;;;;;;;60.42;32.55;;;4.10;98.30;;;;;;5093129;23;20566;-82
2021/01/02 01:30:39;;;;;;;58.97;33.97;;;4.10;98.30;;;;;;5101347;23;20203;-82
2021/01/02 01:32:58;;;;;;;59.13;32.22;;;4.10;98.30;;;;;;5101002;23;20270;-83
2021/01/02 01:35:02;;;;;;;65.45;37.95;;;4.10;98.30;;;;;;5103235;23;20199;-83
2021/01/02 01:37:06;;;;;;;65.63;31.17;;;4.00;98.30;;;;;;5096176;23;20578;-83
2021/01/02 01:39:10;;;;;;;64.63;33.08;;;4.10;98.30;;;;;;5096502;23;20274;-83
2021/01/02 01:41:13;;;;;;;63.40;35.50;;;4.10;98.30;;;;;;5104947;23;20654;-82
2021/01/02 01:43:35;;;;;;;65.75;37.17;;;4.10;98.30;;;;;;5097805;23;20458;-83
2021/01/02 01:46:10;;;;;;;57.40;31.65;;;4.10;98.30;;;;;;5106575;23;20207;-83
2021/01/02 01:48:19;;;;;;;61.53;37.05;;;4.00;98.30;;;;;;5091798;23;20210;-83
2021/01/02 01:50:25;;;;;;;61.03;34.15;;;4.10;98.30;;;;;;5096065;23;20282;-83
2021/01/02 01:52:41;;;;;;;64.95;36.50;;;4.10;98.30;;;;;;5095255;23;20298;-83
2021/01/02 01:55:04;;;;;;;63.10;33.58;;;4.10;98.30;;;;;;5095840;23;20216;-82
2021/01/02 01:57:08;;;;;;;55.67;31.48;;;4.10;98.30;;;;;;5095462;23;20290;-84
2021/01/02 01:59:22;;;;;;;55.60;27.88;;;4.10;98.30;;;;;;5102395;23;20214;-83
2021/01/02 02:01:26;;;;;;;58.05;34.20;;;4.10;98.30;;;;;;5095560;23;20526;-83
2021/01/02 02:03:33;;;;;;;58.38;31.25;;;4.10;98.30;;;;;;5103198;23;20733;-84
2021/01/02 02:05:59;;;;;;;55.15;31.70;;;4.10;98.30;;;;;;5095594;23;20214;-83
2021/01/02 02:08:03;;;;;;;54.00;32.58;;;4.10;98.30;;;;;;5095172;23;20207;-83
2021/01/02 02:10:06;;;;;;;60.55;28.00;;;4.10;98.30;;;;;;5095561;23;20574;-84
2021/01/02 02:12:20;;;;;;;55.00;32.65;;;4.10;98.30;;;;;;5103309;23;20199;-84
2021/01/02 02:14:36;;;;;;;52.65;32.53;;;4.10;98.30;;;;;;5104258;23;20203;-83
2021/01/02 02:16:44;;;;;;;51.28;28.48;;;4.20;98.30;;;;;;5095745;23;20219;-83
2021/01/02 02:18:49;;;;;;;61.67;31.67;;;4.10;98.30;;;;;;5103755;23;20268;-82
2021/01/02 02:20:53;;;;;;;61.92;30.98;;;4.10;98.30;;;;;;5104595;23;20283;-83
2021/01/02 02:23:02;;;;;;;51.10;31.33;;;4.10;98.30;;;;;;5096094;23;20225;-83
2021/01/02 02:25:08;;;;;;;55.33;33.75;;;4.20;98.30;;;;;;5095412;23;20208;-82
2021/01/02 02:27:12;;;;;;;61.90;36.33;;;4.10;98.30;;;;;;5096127;23;20214;-82
2021/01/02 02:29:24;;;;;;;61.55;36.08;;;4.20;98.30;;;;;;5096111;23;20204;-83
2021/01/02 02:31:27;;;;;;;57.75;31.52;;;4.10;98.30;;;;;;5104679;23;20234;-82
2021/01/02 02:33:31;;;;;;;57.15;27.95;;;4.10;98.30;;;;;;5104761;23;20301;-82
2021/01/02 02:35:34;;;;;;;58.17;28.55;;;4.10;98.30;;;;;;5096698;23;20205;-83
2021/01/02 02:37:42;;;;;;;60.37;30.43;;;4.10;98.30;;;;;;5097772;23;20214;-83
2021/01/02 02:39:46;;;;;;;49.72;28.25;;;4.10;98.30;;;;;;5110372;23;20553;-83
2021/01/02 02:41:50;;;;;;;50.83;27.02;;;4.20;98.30;;;;;;5097740;23;20554;-83
2021/01/02 02:43:54;;;;;;;49.28;27.50;;;4.10;98.30;;;;;;5095461;23;20211;-82
2021/01/02 02:45:57;;;;;;;51.75;26.50;;;4.10;98.30;;;;;;5092605;23;20212;-80
2021/01/02 02:48:03;;;;;;;52.08;29.85;;;4.10;98.30;;;;;;5100304;23;20258;-82
2021/01/02 02:50:12;;;;;;;53.13;30.77;;;4.10;98.30;;;;;;5100842;23;20229;-83
2021/01/02 02:52:20;;;;;;;51.05;27.55;;;4.10;98.30;;;;;;5100609;23;20658;-82
2021/01/02 02:54:23;;;;;;;52.27;33.47;;;4.10;98.30;;;;;;5101657;23;20278;-80
2021/01/02 02:56:25;;;;;;;56.75;29.42;;;4.20;98.30;;;;;;5090659;23;20451;-81
2021/01/02 02:58:29;;;;;;;53.03;29.00;;;4.10;98.30;;;;;;5100151;23;20208;-81
2021/01/02 03:00:32;;;;;;;55.97;28.13;;;4.10;98.30;;;;;;5092056;23;20471;-81
2021/01/02 03:02:35;;;;;;;49.33;28.77;;;4.20;98.30;;;;;;5091662;23;20238;-81
2021/01/02 03:04:38;;;;;;;54.92;27.83;;;4.20;98.30;;;;;;5091344;23;20310;-81
2021/01/02 03:06:41;;;;;;;49.85;29.38;;;4.10;98.30;;;;;;5099883;23;20204;-82
2021/01/02 03:08:44;;;;;;;47.45;24.83;;;4.10;98.30;;;;;;5091674;23;20209;-80
2021/01/02 03:10:46;;;;;;;51.83;27.33;;;4.20;98.30;;;;;;5099791;23;20200;-82
2021/01/02 03:12:49;;;;;;;54.00;33.55;;;4.20;98.30;;;;;;5100099;23;20577;-81
2021/01/02 03:14:58;;;;;;;53.58;33.85;;;4.20;98.30;;;;;;5099611;23;20207;-81
2021/01/02 03:17:01;;;;;;;43.85;25.80;;;4.20;98.30;;;;;;5091273;23;20211;-81
2021/01/02 03:19:05;;;;;;;48.00;27.70;;;4.20;98.30;;;;;;5091031;23;20238;-81
2021/01/02 03:21:07;;;;;;;51.85;27.33;;;4.20;98.30;;;;;;5098939;23;20454;-81
2021/01/02 03:23:09;;;;;;;56.13;29.73;;;4.10;98.30;;;;;;5090990;23;20208;-81
2021/01/02 03:25:14;;;;;;;57.33;32.30;;;4.10;98.30;;;;;;5099905;23;20227;-82
2021/01/02 03:27:15;;;;;;;52.22;29.38;;;4.10;98.30;;;;;;5094050;23;20458;-82
2021/01/02 03:29:17;;;;;;;50.57;28.33;;;4.10;98.30;;;;;;5094128;23;20573;-81
2021/01/02 03:31:20;;;;;;;54.60;33.17;;;4.10;98.30;;;;;;5094004;23;20459;-82
2021/01/02 03:33:25;;;;;;;55.90;35.07;;;4.10;98.30;;;;;;5093128;23;20637;-83
2021/01/02 03:35:27;;;;;;;53.67;27.70;;;4.10;98.30;;;;;;5094762;23;20567;-80
2021/01/02 03:37:30;;;;;;;54.35;32.33;;;4.10;98.30;;;;;;5104433;23;20200;-81
2021/01/02 03:39:32;;;;;;;47.17;26.75;;;4.20;98.30;;;;;;5096262;23;20601;-82
2021/01/02 03:41:34;;;;;;;49.97;27.20;;;4.20;98.30;;;;;;5104230;23;20230;-82
2021/01/02 03:43:36;;;;;;;59.72;30.83;;;4.10;98.30;;;;;;5094019;23;21189;-83
2021/01/02 03:45:38;;;;;;;52.65;27.27;;;4.10;98.30;;;;;;5094466;23;20207;-83
2021/01/02 03:47:44;;;;;;;54.70;33.20;;;4.10;98.30;;;;;;5094040;23;20211;-82
2021/01/02 03:49:46;;;;;;;56.35;32.15;;;4.10;98.30;;;;;;5106638;23;20290;-83
2021/01/02 03:51:48;;;;;;;52.90;31.90;;;4.10;98.30;;;;;;5102153;23;20211;-83
2021/01/02 03:53:51;;;;;;;50.25;29.33;;;4.10;98.30;;;;;;5094087;23;20451;-83
2021/01/02 03:55:54;;;;;;;60.05;34.50;;;4.10;98.30;;;;;;5094917;23;20207;-82
2021/01/02 03:57:55;;;;;;;57.83;29.73;;;4.10;98.30;;;;;;5094560;23;20260;-82
2021/01/02 03:59:58;;;;;;;53.55;28.60;;;4.10;98.30;;;;;;5107104;23;20439;-82
2021/01/02 04:02:00;;;;;;;52.88;27.23;;;4.10;98.30;;;;;;5102131;23;20264;-83
2021/01/02 04:04:02;;;;;;;50.17;29.10;;;4.10;98.30;;;;;;5102792;23;20214;-83
2021/01/02 04:06:05;;;;;;;64.82;33.72;;;4.10;98.30;;;;;;5102406;23;20306;-82
2021/01/02 04:08:08;;;;;;;55.45;32.88;;;4.10;98.30;;;;;;5102388;23;20259;-83
2021/01/02 04:10:11;;;;;;;48.30;27.52;;;4.10;98.30;;;;;;5102088;23;20682;-82
2021/01/02 04:12:13;;;;;;;60.78;30.40;;;4.10;98.30;;;;;;5095314;23;20215;-84
2021/01/02 04:14:16;;;;;;;56.13;29.17;;;4.00;98.30;;;;;;5104398;23;20206;-83
2021/01/02 04:16:18;;;;;;;53.10;29.80;;;4.10;98.30;;;;;;5102469;23;20211;-84
2021/01/02 04:18:20;;;;;;;64.25;31.40;;;4.10;98.30;;;;;;5094526;23;20714;-81
2021/01/02 04:20:25;;;;;;;58.58;33.03;;;4.10;98.30;;;;;;5094636;23;20707;-84
2021/01/02 04:22:27;;;;;;;47.45;27.00;;;4.10;98.30;;;;;;5103038;23;20213;-81
2021/01/02 04:24:28;;;;;;;63.27;29.50;;;4.10;98.30;;;;;;5101997;23;20200;-83
2021/01/02 04:26:31;;;;;;;59.63;30.30;;;4.10;98.30;;;;;;5091681;23;20466;-83
2021/01/02 04:28:34;;;;;;;59.75;31.30;;;4.10;98.30;;;;;;5099698;23;20259;-83
2021/01/02 04:30:37;;;;;;;60.38;35.83;;;4.10;98.30;;;;;;5100809;23;21087;-83
2021/01/02 04:32:38;;;;;;;62.38;32.60;;;4.10;98.30;;;;;;5091287;23;20214;-83
2021/01/02 04:34:40;;;;;;;57.85;34.70;;;4.10;98.30;;;;;;5090952;23;20235;-82
2021/01/02 04:36:42;;;;;;;59.20;34.08;;;4.10;98.30;;;;;;5091492;23;20658;-82
2021/01/02 04:38:44;;;;;;;66.40;36.80;;;4.20;98.30;;;;;;5092568;23;20747;-82
2021/01/02 04:40:46;;;;;;;53.85;30.10;;;4.20;98.30;;;;;;5093879;23;20211;-82
2021/01/02 04:42:50;;;;;;;59.28;30.65;;;4.20;98.30;;;;;;5102117;23;20227;-82
2021/01/02 04:44:53;;;;;;;59.75;37.15;;;4.10;98.30;;;;;;5093236;23;20251;-82
2021/01/02 04:46:56;;;;;;;69.90;38.10;;;4.20;98.30;;;;;;5094374;23;20211;-83
2021/01/02 04:48:58;;;;;;;63.22;32.78;;;4.20;98.30;;;;;;5092552;23;20539;-82
2021/01/02 04:51:02;;;;;;;58.90;30.13;;;4.20;98.30;;;;;;5099871;23;20539;-82
2021/01/02 04:53:05;;;;;;;59.20;29.43;;;4.20;98.30;;;;;;5092411;23;20466;-83
2021/01/02 04:55:09;;;;;;;56.23;30.27;;;4.30;98.30;;;;;;5093835;23;20477;-82
2021/01/02 04:57:10;;;;;;;65.33;32.40;;;4.20;98.30;;;;;;5094188;23;20485;-82
2021/01/02 04:59:13;;;;;;;59.37;33.47;;;4.30;98.30;;;;;;5102111;23;20454;-81
2021/01/02 05:01:16;;;;;;;59.73;32.53;;;4.30;98.30;;;;;;5102304;23;20974;-83
2021/01/02 05:03:18;;;;;;;51.72;27.75;;;4.20;98.30;;;;;;5101045;23;20474;-83
2021/01/02 05:05:20;;;;;;;61.77;31.57;;;4.20;98.30;;;;;;5092727;23;20607;-83
2021/01/02 05:07:24;;;;;;;49.63;25.50;;;4.30;98.30;;;;;;5094597;23;20459;-83
2021/01/02 05:09:26;;;;;;;62.85;28.80;;;4.20;98.30;;;;;;5100090;23;20200;-83
2021/01/02 05:11:35;;;;;;;67.07;32.83;;;4.20;98.30;;;;;;5100217;23;20207;-83
2021/01/02 05:13:38;;;;;;;57.77;29.53;;;4.20;98.30;;;;;;5093785;23;20512;-82
2021/01/02 05:15:41;;;;;;;57.83;28.17;;;4.20;98.30;;;;;;5095457;23;20523;-83
2021/01/02 05:17:46;;;;;;;66.83;33.27;;;4.20;98.30;;;;;;5102929;23;20528;-83
2021/01/02 05:20:00;;;;;;;58.83;31.67;;;4.20;98.30;;;;;;5102854;23;20853;-83
2021/01/02 05:22:02;;;;;;;58.70;29.80;;;4.20;98.30;;;;;;5094893;23;20440;-83
2021/01/02 05:24:13;;;;;;;63.67;33.25;;;4.20;98.30;;;;;;5094834;23;20983;-83
2021/01/02 05:26:14;;;;;;;57.67;29.10;;;4.20;98.30;;;;;;5103169;23;20210;-83
2021/01/02 05:28:18;;;;;;;68.13;30.20;;;4.20;98.30;;;;;;5094558;23;20226;-83
2021/01/02 05:30:22;;;;;;;70.23;39.60;;;4.30;98.30;;;;;;5095062;23;20538;-82
2021/01/02 05:32:25;;;;;;;73.80;37.43;;;4.30;98.30;;;;;;5094174;23;20546;-83
2021/01/02 05:34:28;;;;;;;67.60;31.40;;;4.30;98.30;;;;;;5093586;23;20493;-83
2021/01/02 05:36:30;;;;;;;59.35;31.85;;;4.30;98.30;;;;;;5101319;23;20447;-83
2021/01/02 05:38:39;;;;;;;57.23;29.70;;;4.30;98.30;;;;;;5101726;23;20214;-82
2021/01/02 05:40:43;;;;;;;65.03;33.78;;;4.30;98.30;;;;;;5093813;23;20456;-83
2021/01/02 05:42:48;;;;;;;72.00;37.57;;;4.30;98.30;;;;;;5093989;23;20255;-83
2021/01/02 05:44:49;;;;;;;59.58;30.67;;;4.30;98.30;;;;;;5102239;23;20828;-82
2021/01/02 05:46:53;;;;;;;60.67;31.08;;;4.30;98.30;;;;;;5093685;23;20212;-83
2021/01/02 05:48:56;;;;;;;60.93;30.37;;;4.30;98.30;;;;;;5100456;23;20240;-83
2021/01/02 05:50:59;;;;;;;57.03;30.03;;;4.30;98.30;;;;;;5104237;23;20534;-83
2021/01/02 05:53:03;;;;;;;63.87;30.60;;;4.30;98.30;;;;;;5095984;23;20430;-82
2021/01/02 05:55:06;;;;;;;57.70;30.00;;;4.30;98.30;;;;;;5103907;23;20535;-84
2021/01/02 05:57:08;;;;;;;59.47;32.07;;;4.30;98.30;;;;;;5133136;22;20520;-82
2021/01/02 05:59:10;;;;;;;61.23;29.10;;;4.30;98.30;;;;;;5154381;23;20452;-81
2021/01/02 06:01:13;;;;;;;66.23;31.07;;;4.30;98.30;;;;;;5147130;23;20932;-81
2021/01/02 06:03:23;;;;;;;56.30;31.33;;;4.40;98.30;;;;;;5154969;23;20530;-81
2021/01/02 06:05:26;;;;;;;56.27;28.30;;;4.30;98.30;;;;;;5145901;23;20201;-81
2021/01/02 06:07:30;;;;;;;59.25;27.88;;;4.30;98.30;;;;;;5131845;23;20803;-80
2021/01/02 06:09:34;;;;;;;56.30;28.87;;;4.30;98.30;;;;;;5131319;23;20276;-81
2021/01/02 06:11:38;;;;;;;57.67;28.43;;;4.30;98.30;;;;;;5122768;23;20463;-81
2021/01/02 06:13:42;;;;;;;59.53;29.33;;;4.30;98.30;;;;;;5130933;23;20448;-81
2021/01/02 06:15:45;;;;;;;57.83;30.77;;;4.30;98.30;;;;;;5123571;23;20460;-81
2021/01/02 06:17:47;;;;;;;60.13;28.70;;;4.30;98.30;;;;;;5123998;23;20954;-81
2021/01/02 06:19:49;;;;;;;56.50;26.70;;;4.30;98.30;;;;;;5130783;23;20462;-81
2021/01/02 06:21:51;;;;;;;63.97;32.40;;;4.30;98.30;;;;;;5131511;23;20523;-81
2021/01/02 06:23:53;;;;;;;57.80;28.40;;;4.30;98.30;;;;;;5130781;23;20421;-81
2021/01/02 06:25:56;;;;;;;66.37;36.33;;;4.30;98.30;;;;;;5131693;23;20484;-81
2021/01/02 06:27:58;;;;;;;58.13;28.60;;;4.30;98.30;;;;;;5131761;23;20455;-80
2021/01/02 06:30:01;;;;;;;56.70;28.77;;;4.30;98.30;;;;;;5133250;23;20518;-81
2021/01/02 06:32:06;;;;;;;65.40;32.80;;;4.30;98.30;;;;;;5131629;23;20460;-81
2021/01/02 06:34:08;;;;;;;72.27;35.53;;;4.30;98.30;;;;;;5123919;23;20528;-81
2021/01/02 06:36:28;;;;;;;60.80;30.93;;;4.20;98.30;;;;;;5130978;23;20530;-81
2021/01/02 06:38:31;;;;;;;69.70;30.03;;;4.30;98.30;;;;;;5122145;23;20458;-82
2021/01/02 06:40:37;;;;;;;62.40;32.07;;;4.30;98.30;;;;;;5129836;23;20459;-81
2021/01/02 06:42:40;;;;;;;66.17;31.20;;;4.20;98.30;;;;;;5130217;23;20479;-81
2021/01/02 06:44:43;;;;;;;73.77;37.20;;;4.30;98.30;;;;;;5127319;23;20555;-80
2021/01/02 06:46:46;;;;;;;71.93;36.37;;;4.30;98.30;;;;;;5116704;23;20461;-80
2021/01/02 06:48:48;;;;;;;80.50;37.33;;;4.30;98.30;;;;;;5128836;23;20988;-81
2021/01/02 06:50:51;;;;;;;72.80;36.30;;;4.30;98.30;;;;;;5121328;23;20479;-80
2021/01/02 06:52:52;;;;;;;66.40;31.45;;;4.40;98.30;;;;;;5120538;23;20499;-80
2021/01/02 06:55:21;;;;;;;69.10;31.83;;;4.30;98.30;;;;;;5121019;23;20214;-81
2021/01/02 06:57:27;;;;;;;74.37;36.03;;;4.30;98.30;;;;;;5132423;23;20488;-81
2021/01/02 06:59:28;;;;;;;82.37;41.27;;;4.40;98.30;;;;;;5133286;23;20450;-81
2021/01/02 07:01:41;;;;;;;66.77;30.60;;;4.30;98.30;;;;;;5134347;23;20454;-81
2021/01/02 07:03:45;;;;;;;71.30;36.63;;;4.30;98.30;;;;;;5124477;23;20454;-81
2021/01/02 07:05:48;;;;;;;76.97;38.70;;;4.30;98.30;;;;;;5132389;23;20454;-81
2021/01/02 07:07:50;;;;;;;71.33;32.07;;;4.40;98.30;;;;;;5134098;23;21028;-81
2021/01/02 07:09:52;;;;;;;82.63;39.80;;;4.40;98.30;;;;;;5125273;23;20461;-81
2021/01/02 07:12:12;;;;;;;67.87;37.50;;;4.40;98.30;;;;;;5132101;23;20477;-81
2021/01/02 07:14:25;;;;;;;71.13;35.07;;;4.40;98.30;;;;;;5124550;23;20899;-80
2021/01/02 07:16:30;;;;;;;64.22;32.42;;;4.40;98.30;;;;;;5130874;23;20451;-81
2021/01/02 07:18:32;;;;;;;70.20;30.70;;;4.50;98.30;;;;;;5132165;23;20264;-80
2021/01/02 07:20:34;;;;;;;81.10;39.23;;;4.50;98.30;;;;;;5123271;23;20522;-80
2021/01/02 07:22:37;;;;;;;72.83;38.23;;;4.50;98.30;;;;;;5130463;23;20464;-81
2021/01/02 07:24:41;;;;;;;67.40;33.73;;;4.50;98.30;;;;;;5130390;23;20498;-80
2021/01/02 07:26:43;;;;;;;64.27;34.80;;;4.40;98.30;;;;;;5128202;23;20955;-81
2021/01/02 07:28:52;;;;;;;64.23;31.37;;;4.50;98.30;;;;;;5127458;23;20510;-80
2021/01/02 07:30:58;;;;;;;69.63;31.10;;;4.50;98.30;;;;;;5127418;23;20454;-81
2021/01/02 07:33:00;;;;;;;70.30;32.07;;;4.50;98.30;;;;;;5122089;23;20450;-80
2021/01/02 07:35:06;;;;;;;71.13;32.20;;;4.50;98.30;;;;;;5122240;23;20430;-80
2021/01/02 07:37:10;;;;;;;66.70;33.20;;;4.40;98.30;;;;;;5130510;23;20472;-80
2021/01/02 07:39:12;;;;;;;63.97;31.27;;;4.40;98.30;;;;;;5121212;23;20454;-81
2021/01/02 07:41:18;;;;;;;62.07;29.63;;;4.50;98.30;;;;;;5129502;23;20453;-81
2021/01/02 07:43:20;;;;;;;65.80;32.67;;;4.40;98.30;;;;;;5122107;23;20523;-80
2021/01/02 07:45:25;;;;;;;72.00;33.70;;;4.50;98.30;;;;;;5130717;23;20720;-81
2021/01/02 07:47:28;;;;;;;72.22;35.03;;;4.40;98.30;;;;;;5129378;23;21074;-81
2021/01/02 07:49:35;;;;;;;69.20;34.80;;;4.40;98.30;;;;;;5129123;23;20235;-81
2021/01/02 07:51:38;;;;;;;73.50;33.97;;;4.50;98.30;;;;;;5119681;23;20461;-82
2021/01/02 07:53:40;;;;;;;67.60;35.60;;;4.50;98.30;;;;;;5127477;23;20439;-81
2021/01/02 07:55:42;;;;;;;68.07;31.00;;;4.50;98.30;;;;;;5118716;23;20486;-82
2021/01/02 07:57:46;;;;;;;66.10;31.53;;;4.50;98.30;;;;;;5127677;23;20538;-80
2021/01/02 07:59:48;;;;;;;66.60;31.53;;;4.50;98.30;;;;;;5119620;23;20459;-81
2021/01/02 08:01:59;;;;;;;68.23;32.43;;;4.50;98.30;;;;;;5119901;23;20986;-81
2021/01/02 08:04:01;;;;;;;73.30;32.50;;;4.50;98.30;;;;;;5127635;23;20456;-81
2021/01/02 08:06:08;;;;;;;66.57;36.03;;;4.50;98.30;;;;;;5128057;23;20521;-80
2021/01/02 08:08:11;;;;;;;67.67;31.17;;;4.50;98.30;;;;;;5127990;23;20562;-81
2021/01/02 08:10:14;;;;;;;65.00;30.67;;;4.50;98.30;;;;;;5129852;23;20868;-81
2021/01/02 08:12:18;;;;;;;73.00;31.37;;;4.50;98.30;;;;;;5121941;23;20462;-80
2021/01/02 08:14:20;;;;;;;69.47;32.60;;;4.40;98.30;;;;;;5129859;23;20458;-80
2021/01/02 08:16:22;;;;;;;57.30;29.03;;;4.60;98.30;;;;;;5120748;23;20428;-81
2021/01/02 08:18:25;;;;;;;74.47;34.23;;;4.60;98.30;;;;;;5129236;23;20456;-80
2021/01/02 08:20:27;;;;;;;72.17;32.73;;;4.50;98.30;;;;;;5128727;23;20458;-80
2021/01/02 08:22:31;;;;;;;72.43;33.10;;;4.60;98.30;;;;;;5120269;23;20456;-81
2021/01/02 08:24:33;;;;;;;66.23;30.60;;;4.60;98.30;;;;;;5129524;23;20456;-81
2021/01/02 08:26:35;;;;;;;62.40;31.37;;;4.60;98.30;;;;;;5121372;23;20455;-82
2021/01/02 08:28:37;;;;;;;70.10;34.17;;;4.60;98.30;;;;;;5122444;23;20451;-82
2021/01/02 08:30:39;;;;;;;72.07;31.23;;;4.50;98.30;;;;;;5117146;23;20772;-81
2021/01/02 08:32:43;;;;;;;58.50;29.30;;;4.50;98.30;;;;;;5127657;23;20502;-82
2021/01/02 08:34:47;;;;;;;64.53;30.50;;;4.50;98.30;;;;;;5126567;23;20937;-81
2021/01/02 08:36:48;;;;;;;67.07;32.00;;;4.50;98.30;;;;;;5118767;23;20451;-81
2021/01/02 08:38:57;;;;;;;63.27;30.00;;;4.50;98.30;;;;;;5127416;23;20449;-81
2021/01/02 08:40:59;;;;;;;75.03;37.30;;;4.50;98.30;;;;;;5127221;23;20433;-81
2021/01/02 08:43:01;;;;;;;61.27;32.50;;;4.40;98.30;;;;;;5127053;23;20452;-81
2021/01/02 08:45:06;;;;;;;64.07;32.57;;;4.40;98.30;;;;;;5119634;23;20834;-81
2021/01/02 08:47:07;;;;;;;63.33;30.03;;;4.50;98.30;;;;;;5118475;23;21012;-81
2021/01/02 08:49:09;;;;;;;61.73;29.67;;;4.50;98.30;;;;;;5127201;23;20446;-81
2021/01/02 08:51:22;;;;;;;66.93;36.40;;;4.40;98.30;;;;;;5127665;23;20489;-81
2021/01/02 08:53:25;;;;;;;69.90;34.90;;;4.40;98.30;;;;;;5126794;23;20540;-81
2021/01/02 08:55:29;;;;;;;65.40;30.47;;;4.40;98.30;;;;;;5119407;23;20207;-81
2021/01/02 08:57:33;;;;;;;65.60;31.30;;;4.40;98.30;;;;;;5125442;23;20467;-81
2021/01/02 08:59:35;;;;;;;64.03;30.50;;;4.30;98.30;;;;;;5125364;23;20796;-81
2021/01/02 09:01:37;;;;;;;59.50;30.90;;;4.50;98.30;;;;;;5124666;23;20540;-81
2021/01/02 09:03:39;;;;;;;61.50;29.80;;;4.50;98.30;;;;;;5125065;23;20539;-82
2021/01/02 09:05:42;;;;;;;69.07;29.97;;;4.50;98.30;;;;;;5123551;23;20527;-82
2021/01/02 09:07:56;;;;;;;66.40;31.53;;;4.50;98.30;;;;;;5125158;23;20526;-81
2021/01/02 09:10:22;;;;;;;68.27;30.03;;;4.50;98.30;;;;;;5126087;23;20505;-81
2021/01/02 09:12:31;;;;;;;59.83;28.70;;;4.50;98.30;;;;;;5125253;23;20443;-81
2021/01/02 09:14:33;;;;;;;71.70;30.10;;;4.40;98.30;;;;;;5125617;23;20477;-81
2021/01/02 09:16:35;;;;;;;80.10;37.60;;;4.40;98.30;;;;;;5126325;23;20480;-81
2021/01/02 09:18:42;;;;;;;79.20;40.20;;;4.40;98.30;;;;;;5117542;23;20450;-82
2021/01/02 09:20:47;;;;;;;76.47;41.80;;;4.50;98.30;;;;;;5124474;23;20559;-82
2021/01/02 09:22:54;;;;;;;75.83;36.27;;;4.40;98.30;;;;;;5116346;23;20456;-81
2021/01/02 09:25:11;;;;;;;72.38;30.30;;;4.50;98.30;;;;;;5125265;23;20770;-81
2021/01/02 09:27:12;;;;;;;73.80;35.78;;;4.50;98.30;;;;;;5125167;23;20829;-81
2021/01/02 09:29:16;;;;;;;76.30;31.57;;;4.40;98.30;;;;;;5125014;23;20210;-81
2021/01/02 09:31:21;;;;;;;70.10;31.20;;;4.50;98.30;;;;;;5118173;23;20436;-81
2021/01/02 09:33:23;;;;;;;72.10;31.63;;;4.50;98.30;;;;;;5118344;23;20451;-81
2021/01/02 09:35:25;;;;;;;70.27;32.00;;;4.40;98.30;;;;;;5118039;23;20473;-81
2021/01/02 09:37:27;;;;;;;58.10;31.10;;;4.40;98.30;;;;;;5126105;23;20427;-81
2021/01/02 09:39:34;;;;;;;74.80;33.50;;;4.40;98.30;;;;;;5125737;23;21207;-82
2021/01/02 09:41:39;;;;;;;82.60;33.33;;;4.50;98.30;;;;;;5128972;23;20464;-82
2021/01/02 09:43:41;;;;;;;66.33;31.20;;;4.40;98.30;;;;;;5125776;23;20503;-82
2021/01/02 09:45:44;;;;;;;82.43;36.13;;;4.40;98.30;;;;;;5125455;23;20462;-82
2021/01/02 09:47:46;;;;;;;77.57;30.57;;;4.50;98.30;;;;;;5126470;23;20466;-81
2021/01/02 09:49:48;;;;;;;71.33;31.97;;;4.50;98.30;;;;;;5117245;23;20538;-82
2021/01/02 09:51:51;;;;;;;70.17;30.30;;;4.50;98.30;;;;;;5125831;23;20444;-83
2021/01/02 09:53:53;;;;;;;74.77;31.53;;;4.50;98.30;;;;;;5124352;23;21049;-82
2021/01/02 09:55:56;;;;;;;64.07;31.87;;;4.50;98.30;;;;;;5116939;23;20459;-82
2021/01/02 09:57:58;;;;;;;68.80;31.90;;;4.50;98.30;;;;;;5124952;23;20560;-83
2021/01/02 10:00:00;;;;;;;78.77;39.77;;;4.50;98.30;;;;;;5125568;23;20508;-83
2021/01/02 10:02:02;;;;;;;59.50;29.70;;;4.50;98.30;;;;;;5118006;23;20477;-82
2021/01/02 10:04:04;;;;;;;71.53;30.13;;;4.60;98.30;;;;;;5125710;23;20450;-78
2021/01/02 10:06:06;;;;;;;70.50;30.67;;;4.50;98.30;;;;;;5117098;23;20456;-80
2021/01/02 10:08:08;;;;;;;64.70;29.13;;;4.50;98.30;;;;;;5126002;23;20459;-77
2021/01/02 10:10:12;;;;;;;67.47;32.07;;;4.60;98.30;;;;;;5117198;23;20541;-79
2021/01/02 10:12:16;;;;;;;64.53;30.07;;;4.60;98.30;;;;;;5117785;23;20460;-80
2021/01/02 10:14:18;;;;;;;65.17;28.63;;;4.70;98.30;;;;;;5126113;23;20566;-79
2021/01/02 10:16:20;;;;;;;67.23;30.70;;;4.70;98.30;;;;;;5126817;23;20438;-81
2021/01/02 10:18:22;;;;;;;69.63;30.73;;;4.70;98.30;;;;;;5122218;23;20458;-80
2021/01/02 10:20:24;;;;;;;70.00;28.37;;;4.70;98.30;;;;;;5116805;23;20431;-81
2021/01/02 10:22:27;;;;;;;59.30;28.97;;;4.70;98.30;;;;;;5124755;23;20966;-80
2021/01/02 10:24:30;;;;;;;66.13;32.57;;;4.70;98.30;;;;;;5124531;23;20446;-84
2021/01/02 10:26:31;;;;;;;59.67;28.17;;;4.70;98.30;;;;;;5125136;23;20469;-80
2021/01/02 10:28:34;;;;;;;64.67;29.63;;;4.70;98.30;;;;;;5116698;23;20944;-79
2021/01/02 10:30:56;;;;;;;75.00;30.10;;;4.80;98.30;;;;;;5117791;23;21012;-81
2021/01/02 10:32:59;;;;;;;55.77;27.40;;;4.70;98.30;;;;;;5125794;23;20438;-82
2021/01/02 10:35:01;;;;;;;57.17;27.43;;;4.70;98.30;;;;;;5127689;23;20513;-82
2021/01/02 10:37:03;;;;;;;59.37;29.17;;;4.70;98.30;;;;;;5127411;23;20538;-82
2021/01/02 10:39:06;;;;;;;54.33;29.50;;;4.70;98.30;;;;;;5135328;23;20451;-82
2021/01/02 10:41:12;;;;;;;60.33;29.23;;;4.70;98.30;;;;;;5121378;23;20959;-82
2021/01/02 10:43:14;;;;;;;63.97;27.83;;;4.60;98.30;;;;;;5125767;23;20462;-81
2021/01/02 10:45:18;;;;;;;72.40;30.20;;;4.70;98.30;;;;;;5124981;23;20807;-82